^^
Meteo Knjazevac Station Historical Data
Daily Summary for February 20, 2021 Units:  English    Metric   Both
Daily Weekly Monthly Yearly Custom
  High: Low: Average:
Temperature: 80.8 °F 66 °F 72.4 °F
Dew Point: 71.1 °F 64.6 °F 67.9 °F
Humidity: 99% 72% 86%
Wind Speed: 12mph 0mph 3.8mph
Wind Gust: 18mph - -
Wind- - SW
Pressure: 30.07 in 29.94 in -
Precipitation: 0.00 in    
Historical Graphs
 
 
Tabular Data for February 20, 2021
Time Temperature Dew Point Pressure Wind Wind Speed Wind Gust Humidity Rainfall Rate (Hourly) solar Conditions
00:00 67.8 °F 66.3 °F 29.95 in NNW 1 mph 2 mph 95% 0.00 in 0 W/m2
00:10 67.8 °F 66.3 °F 29.95 in Calm   2 mph 95% 0.00 in 0 W/m2
00:20 67.5 °F 66.1 °F 29.95 in Calm   2 mph 95% 0.00 in 0 W/m2
00:30 67.3 °F 65.8 °F 29.95 in WNW 1 mph 4 mph 95% 0.00 in 0 W/m2
00:40 66.9 °F 65.7 °F 29.95 in NW 2 mph 3 mph 96% 0.00 in 0 W/m2
00:50 66.7 °F 65.6 °F 29.95 in WNW 1 mph 5 mph 96% 0.00 in 0 W/m2
01:00 66.7 °F 65.6 °F 29.95 in West 1 mph 3 mph 96% 0.00 in 0 W/m2
01:10 66.6 °F 65.4 °F 29.95 in West 2 mph 3 mph 96% 0.00 in 0 W/m2
01:20 66.6 °F 65.4 °F 29.95 in WSW 2 mph 5 mph 96% 0.00 in 0 W/m2
01:30 66.6 °F 66 °F 29.95 in SW 2 mph 3 mph 98% 0.00 in 0 W/m2
01:40 66.4 °F 65.8 °F 29.95 in SSE 2 mph 5 mph 98% 0.00 in 0 W/m2
01:50 66.4 °F 65.8 °F 29.95 in SW 1 mph 3 mph 98% 0.00 in 0 W/m2
02:00 66.4 °F 65.8 °F 29.95 in WSW 1 mph 2 mph 98% 0.00 in 0 W/m2
02:10 66.4 °F 65.8 °F 29.95 in Calm   3 mph 98% 0.00 in 0 W/m2
02:20 66.4 °F 65.8 °F 29.95 in WSW 2 mph 3 mph 98% 0.00 in 0 W/m2
02:30 66.4 °F 65.8 °F 29.95 in SW 1 mph 2 mph 98% 0.00 in 0 W/m2
02:40 66.2 °F 65.9 °F 29.95 in SW 1 mph 2 mph 99% 0.00 in 0 W/m2
02:50 66.2 °F 65.9 °F 29.95 in SE 1 mph 4 mph 99% 0.00 in 0 W/m2
03:00 66.2 °F 65.9 °F 29.94 in SE 2 mph 6 mph 99% 0.00 in 0 W/m2
03:10 66.2 °F 65.9 °F 29.94 in Calm   6 mph 99% 0.00 in 0 W/m2
03:20 66.2 °F 65.9 °F 29.94 in East 1 mph 6 mph 99% 0.00 in 0 W/m2
03:30 66.2 °F 65.9 °F 29.94 in ENE 2 mph 3 mph 99% 0.00 in 0 W/m2
03:40 66.2 °F 65.9 °F 29.94 in SSW 3 mph 6 mph 99% 0.00 in 0 W/m2
03:50 66.4 °F 66.1 °F 29.94 in SW 1 mph 3 mph 99% 0.00 in 0 W/m2
04:00 66.4 °F 66.1 °F 29.94 in WSW 1 mph 3 mph 99% 0.00 in 0 W/m2
04:10 66.4 °F 66.1 °F 29.94 in Calm   2 mph 99% 0.00 in 0 W/m2
04:20 66.4 °F 66.1 °F 29.94 in North 1 mph 2 mph 99% 0.00 in 0 W/m2
04:30 66.4 °F 66.1 °F 29.95 in Calm   2 mph 99% 0.00 in 0 W/m2
04:40 66.2 °F 65.9 °F 29.95 in West 2 mph 5 mph 99% 0.00 in 0 W/m2
04:50 66 °F 65.7 °F 29.95 in WSW 2 mph 4 mph 99% 0.00 in 0 W/m2
05:00 66.1 °F 65.8 °F 29.95 in SW 2 mph 3 mph 99% 0.00 in 0 W/m2
05:20 66.2 °F 65.9 °F 29.95 in SW 2 mph 5 mph 99% 0.00 in 6 W/m2
05:30 66.4 °F 66.1 °F 29.95 in SW 1 mph 3 mph 99% 0.00 in 10 W/m2
05:40 66.4 °F 66.1 °F 29.95 in SW 1 mph 3 mph 99% 0.00 in 13 W/m2
05:50 66.6 °F 66.3 °F 29.95 in SSW 1 mph 2 mph 99% 0.00 in 19 W/m2
06:00 66.6 °F 66.3 °F 29.96 in Calm   2 mph 99% 0.00 in 25 W/m2
06:10 66.7 °F 66.5 °F 29.96 in SSW 1 mph 2 mph 99% 0.00 in 32 W/m2
06:20 66.9 °F 66.6 °F 29.96 in Calm   2 mph 99% 0.00 in 42 W/m2
06:30 66.9 °F 66.6 °F 29.96 in NE 2 mph 3 mph 99% 0.00 in 36 W/m2
06:40 67.2 °F 66.9 °F 29.96 in Calm   4 mph 99% 0.00 in 54 W/m2
06:50 67.5 °F 66.9 °F 29.96 in NNE 1 mph 3 mph 98% 0.00 in 33 W/m2
07:00 67.6 °F 67.1 °F 29.96 in SW 1 mph 3 mph 98% 0.00 in 68 W/m2
07:10 67.8 °F 67.2 °F 29.96 in WSW 1 mph 3 mph 98% 0.00 in 57 W/m2
07:20 68 °F 67.4 °F 29.96 in SW 3 mph 6 mph 98% 0.00 in 120 W/m2
07:30 68.4 °F 67.8 °F 29.97 in SW 3 mph 6 mph 98% 0.00 in 96 W/m2
07:40 68.5 °F 67.4 °F 29.97 in SW 2 mph 5 mph 96% 0.00 in 109 W/m2
07:50 68.9 °F 67.7 °F 29.97 in SW 1 mph 4 mph 96% 0.00 in 129 W/m2
08:00 69.2 °F 68 °F 29.97 in SSW 2 mph 4 mph 96% 0.00 in 180 W/m2
08:10 69.6 °F 68.4 °F 29.97 in SW 2 mph 5 mph 96% 0.00 in 232 W/m2
08:20 70 °F 68.5 °F 29.97 in SSW 2 mph 3 mph 95% 0.00 in 282 W/m2
08:30 70.5 °F 68.7 °F 29.97 in South 1 mph 3 mph 94% 0.00 in 236 W/m2
08:40 70.9 °F 68.8 °F 29.98 in SW 2 mph 4 mph 93% 0.00 in 220 W/m2
08:50 71.1 °F 68.9 °F 29.98 in SSW 3 mph 5 mph 93% 0.00 in 402 W/m2
09:00 71.7 °F 69 °F 29.97 in SW 3 mph 7 mph 91% 0.00 in 532 W/m2
09:10 72.8 °F 69.7 °F 29.97 in SW 2 mph 7 mph 90% 0.00 in 494 W/m2
09:20 73.9 °F 69.8 °F 29.97 in SW 1 mph 7 mph 87% 0.00 in 686 W/m2
09:30 74.7 °F 69.8 °F 29.97 in SW 2 mph 6 mph 85% 0.00 in 211 W/m2
09:40 74.1 °F 69.3 °F 29.98 in WSW 3 mph 7 mph 85% 0.00 in 604 W/m2
09:50 75.1 °F 70.3 °F 29.98 in SW 3 mph 8 mph 85% 0.00 in 411 W/m2
10:00 75.6 °F 70.4 °F 29.97 in SW 3 mph 11 mph 84% 0.00 in 781 W/m2
10:10 76.3 °F 70 °F 29.97 in WSW 6 mph 10 mph 81% 0.00 in 802 W/m2
10:20 77.1 °F 70.1 °F 29.97 in WSW 6 mph 10 mph 79% 0.00 in 822 W/m2
10:30 77.2 °F 70.2 °F 29.97 in WSW 5 mph 18 mph 79% 0.00 in 282 W/m2
10:40 76.5 °F 69.8 °F 29.97 in SW 5 mph 9 mph 80% 0.00 in 472 W/m2
10:50 76.8 °F 70.2 °F 29.97 in SW 8 mph 14 mph 80% 0.00 in 602 W/m2
11:00 76.3 °F 70 °F 29.98 in SW 8 mph 16 mph 81% 0.00 in 358 W/m2
11:10 74.9 °F 69.7 °F 29.98 in SW 8 mph 15 mph 84% 0.00 in 291 W/m2
11:20 74.1 °F 69.3 °F 29.98 in SW 8 mph 14 mph 85% 0.00 in 403 W/m2
11:30 74.5 °F 69.7 °F 29.98 in SW 8 mph 13 mph 85% 0.00 in 710 W/m2
11:40 75.4 °F 70.6 °F 29.98 in SW 7 mph 12 mph 85% 0.00 in 671 W/m2
11:50 75.7 °F 70.2 °F 29.98 in SW 6 mph 12 mph 83% 0.00 in 806 W/m2
12:00 76.1 °F 70.5 °F 29.97 in SW 7 mph 12 mph 83% 0.00 in 602 W/m2
12:10 76.3 °F 70 °F 29.98 in SW 7 mph 11 mph 81% 0.00 in 952 W/m2
12:20 76.8 °F 69.8 °F 29.97 in SW 10 mph 14 mph 79% 0.00 in 739 W/m2
12:30 77.2 °F 70.2 °F 29.97 in SW 6 mph 14 mph 79% 0.00 in 719 W/m2
12:40 77.7 °F 69.9 °F 29.97 in West 8 mph 12 mph 77% 0.00 in 236 W/m2
12:50 78.4 °F 70.2 °F 29.97 in West 8 mph 13 mph 76% 0.00 in 455 W/m2
13:00 78.4 °F 69.8 °F 29.97 in West 5 mph 13 mph 75% 0.00 in 360 W/m2
13:10 78.9 °F 71.1 °F 29.97 in West 9 mph 16 mph 77% 0.00 in 705 W/m2
13:20 79.5 °F 70.5 °F 29.97 in West 9 mph 17 mph 74% 0.00 in 475 W/m2
13:30 78.4 °F 69.5 °F 29.97 in WSW 5 mph 14 mph 74% 0.00 in 330 W/m2
13:40 77.9 °F 70.1 °F 29.97 in West 6 mph 14 mph 77% 0.00 in 924 W/m2
13:50 78.4 °F 70.2 °F 29.97 in West 8 mph 14 mph 76% 0.00 in 448 W/m2
14:00 78.3 °F 69.7 °F 29.96 in West 5 mph 14 mph 75% 0.00 in 523 W/m2
14:10 78.3 °F 70.5 °F 29.96 in West 8 mph 14 mph 77% 0.00 in 485 W/m2
14:20 78.1 °F 69.6 °F 29.96 in WSW 10 mph 15 mph 75% 0.00 in 352 W/m2
14:30 77.8 °F 69.2 °F 29.96 in West 8 mph 14 mph 75% 0.00 in 453 W/m2
14:40 78.1 °F 69.5 °F 29.96 in West 8 mph 17 mph 75% 0.00 in 403 W/m2
14:50 78.1 °F 69.5 °F 29.96 in West 7 mph 16 mph 75% 0.00 in 821 W/m2
15:00 79 °F 70 °F 29.96 in West 12 mph 16 mph 74% 0.00 in 542 W/m2
15:10 79.2 °F 69.8 °F 29.96 in West 8 mph 15 mph 73% 0.00 in 389 W/m2
15:20 79.3 °F 70.3 °F 29.96 in West 7 mph 15 mph 74% 0.00 in 758 W/m2
15:30 79.9 °F 70.4 °F 29.96 in West 7 mph 14 mph 73% 0.00 in 357 W/m2
15:40 80 °F 70.2 °F 29.96 in WSW 8 mph 14 mph 72% 0.00 in 295 W/m2
15:50 80.2 °F 70.8 °F 29.97 in West 8 mph 15 mph 73% 0.00 in 685 W/m2
16:00 80.8 °F 70.9 °F 29.96 in West 8 mph 16 mph 72% 0.00 in 515 W/m2
16:10 80.1 °F 70.3 °F 29.97 in WSW 9 mph 15 mph 72% 0.00 in 632 W/m2
16:20 80.3 °F 70.4 °F 29.97 in West 9 mph 16 mph 72% 0.00 in 289 W/m2
16:30 79.2 °F 69.8 °F 29.97 in WSW 7 mph 18 mph 73% 0.00 in 283 W/m2
16:40 78.6 °F 69.6 °F 29.97 in WSW 8 mph 14 mph 74% 0.00 in 222 W/m2
16:50 78.1 °F 69.1 °F 29.98 in WSW 10 mph 15 mph 74% 0.00 in 205 W/m2
17:00 77.7 °F 69.2 °F 29.98 in WSW 10 mph 16 mph 75% 0.00 in 171 W/m2
17:10 77.5 °F 68.9 °F 29.98 in WSW 9 mph 15 mph 75% 0.00 in 182 W/m2
17:20 77.4 °F 69.6 °F 29.98 in WSW 6 mph 12 mph 77% 0.00 in 190 W/m2
17:30 77.4 °F 69.6 °F 29.98 in WSW 6 mph 13 mph 77% 0.00 in 175 W/m2
17:40 77.4 °F 69.6 °F 29.99 in WSW 6 mph 13 mph 77% 0.00 in 186 W/m2
17:50 77 °F 69.3 °F 29.99 in WSW 6 mph 12 mph 77% 0.00 in 182 W/m2
18:00 77 °F 69.2 °F 29.99 in WSW 6 mph 12 mph 77% 0.00 in 231 W/m2
18:10 77.3 °F 69.6 °F 29.99 in WSW 7 mph 12 mph 77% 0.00 in 132 W/m2
18:20 77.2 °F 69.4 °F 29.99 in WSW 6 mph 13 mph 77% 0.00 in 233 W/m2
18:30 77.4 °F 69.6 °F 29.99 in WSW 8 mph 12 mph 77% 0.00 in 129 W/m2
18:40 77 °F 68.5 °F 29.99 in WSW 7 mph 15 mph 75% 0.00 in 148 W/m2
18:50 77 °F 68.1 °F 30.00 in West 7 mph 15 mph 74% 0.00 in 109 W/m2
19:00 76.8 °F 67.9 °F 30.00 in West 6 mph 13 mph 74% 0.00 in 89 W/m2
19:10 76.6 °F 68.1 °F 30.01 in WSW 6 mph 13 mph 75% 0.00 in 59 W/m2
19:20 76.5 °F 67.9 °F 30.01 in WSW 3 mph 9 mph 75% 0.00 in 48 W/m2
19:30 75.9 °F 68.2 °F 30.01 in West 6 mph 9 mph 77% 0.00 in 35 W/m2
19:40 75.7 °F 68 °F 30.01 in West 5 mph 8 mph 77% 0.00 in 26 W/m2
19:50 75.4 °F 68 °F 30.01 in WSW 2 mph 5 mph 78% 0.00 in 14 W/m2
20:00 75.2 °F 67.9 °F 30.02 in WSW 2 mph 5 mph 78% 0.00 in 7 W/m2
20:10 74.8 °F 67.9 °F 30.02 in SW 3 mph 5 mph 79% 0.00 in 0 W/m2
20:20 74.5 °F 67.9 °F 30.02 in SW 2 mph 5 mph 80% 0.00 in 0 W/m2
20:30 74.1 °F 67.6 °F 30.02 in SW 1 mph 4 mph 80% 0.00 in 0 W/m2
20:40 73.9 °F 67.4 °F 30.03 in SW 2 mph 4 mph 80% 0.00 in 0 W/m2
20:50 73.6 °F 67.4 °F 30.04 in West 2 mph 5 mph 81% 0.00 in 0 W/m2
21:00 73 °F 66.9 °F 30.04 in West 1 mph 5 mph 81% 0.00 in 0 W/m2
21:10 72.7 °F 66.5 °F 30.04 in WSW 2 mph 4 mph 81% 0.00 in 0 W/m2
21:20 72.3 °F 66.9 °F 30.04 in SW 1 mph 5 mph 83% 0.00 in 0 W/m2
21:30 72 °F 66.5 °F 30.04 in SSW 2 mph 6 mph 83% 0.00 in 0 W/m2
21:40 71.4 °F 66.4 °F 30.04 in SSW 1 mph 6 mph 84% 0.00 in 0 W/m2
21:50 70.9 °F 65.8 °F 30.05 in South 3 mph 5 mph 84% 0.00 in 0 W/m2
22:00 70.4 °F 65.6 °F 30.05 in East 2 mph 5 mph 85% 0.00 in 0 W/m2
22:10 70 °F 65.3 °F 30.05 in SSW 1 mph 5 mph 85% 0.00 in 0 W/m2
22:20 69.6 °F 65.2 °F 30.05 in SW 1 mph 3 mph 86% 0.00 in 0 W/m2
22:30 69.1 °F 64.7 °F 30.05 in SSE 2 mph 4 mph 86% 0.00 in 0 W/m2
22:40 68.7 °F 65 °F 30.06 in Calm   4 mph 88% 0.00 in 0 W/m2
22:50 68.4 °F 65 °F 30.06 in SSE 1 mph 4 mph 89% 0.00 in 0 W/m2
23:00 68.2 °F 64.8 °F 30.06 in SSE 1 mph 4 mph 89% 0.00 in 0 W/m2
23:10 68.2 °F 65.1 °F 30.06 in Calm   6 mph 90% 0.00 in 0 W/m2
23:20 68.2 °F 65.1 °F 30.06 in NE 2 mph 3 mph 90% 0.00 in 0 W/m2
23:30 68 °F 65.3 °F 30.06 in ENE 1 mph 3 mph 91% 0.00 in 0 W/m2
23:40 67.6 °F 64.9 °F 30.06 in Calm   2 mph 91% 0.00 in 0 W/m2
23:50 67.3 °F 64.6 °F 30.07 in Calm   3 mph 91% 0.00 in 0 W/m2
Knjazevac, Serbia
Compliments of Weather Underground - 2 mb